Union Center, New Jersey
Current Conditions -  °F | °C
As of 12:51 AM on Wednesday 22 Oct 2014 (Local Time) from KEWR Reporting Station
Overcast Overcast  
Wind Chill: 55°   Ceiling: 2800
Heat Index: 55°   Visibility: 10mi
Dew Point: 53°   Wind: 12mph
Humidity: 93%   Direction: 10°N
Pressure: 29.91"   Gusts: NA
Location:  40.6941°N, 74.2694°W
Report Text: KEWR 220451Z 01010KT 10SM FEW018 BKN028 OVC210 13/12 A2991 RMK AO2 SLP126 T01280117 401940117
Loading
Personal Weather Stations






























Interactive Weather Map
Tropical Storm Tracking
New forecast layout! Learn more

10-Day Weather Forecast

Advertisements
Track Severe Weather on mobile